Time;durP1;ratioP1;P1;durP2;ratioP2;P2;SDS_P1;SDS_P2;PMS_P1;PMS_P2;Temp;Humidity;BMP_temperature;BMP_pressure;BME280_temperature;BME280_humidity;BME280_pressure;Samples;Min_cycle;Max_cycle;Signal;HPM_P1;HPM_P2
2021/03/16 00:01:42;;;;;;;27.90;3.17;;;6.30;99.90;;;;;;5027964;28;20050;-83
2021/03/16 00:04:09;;;;;;;19.05;3.20;;;6.40;99.90;;;;;;5011118;28;20029;-83
2021/03/16 00:06:35;;;;;;;21.45;2.13;;;6.30;99.90;;;;;;5011710;28;20054;-82
2021/03/16 00:09:02;;;;;;;15.30;2.22;;;6.30;99.90;;;;;;5013876;28;20068;-84
2021/03/16 00:11:28;;;;;;;22.17;3.28;;;6.30;99.90;;;;;;5013549;28;20053;-84
2021/03/16 00:13:54;;;;;;;18.10;2.20;;;6.30;99.90;;;;;;5024530;28;20045;-82
2021/03/16 00:16:20;;;;;;;21.27;2.38;;;6.30;99.90;;;;;;5013705;28;20094;-83
2021/03/16 00:18:47;;;;;;;13.98;2.38;;;6.30;99.90;;;;;;5016490;28;20053;-84
2021/03/16 00:21:13;;;;;;;21.67;3.58;;;6.30;99.90;;;;;;4994635;28;20054;-84
2021/03/16 00:23:39;;;;;;;17.13;2.33;;;6.30;99.90;;;;;;4995262;28;20080;-84
2021/03/16 00:26:06;;;;;;;21.80;3.60;;;6.40;99.90;;;;;;4995199;28;21124;-85
2021/03/16 00:28:33;;;;;;;17.38;2.30;;;6.40;99.90;;;;;;4995903;28;20098;-84
2021/03/16 00:30:59;;;;;;;26.75;3.08;;;6.40;99.90;;;;;;4994417;28;20054;-85
2021/03/16 00:33:25;;;;;;;23.23;2.28;;;6.40;99.90;;;;;;4982677;28;20077;-84
2021/03/16 00:35:52;;;;;;;13.98;2.55;;;6.40;99.90;;;;;;5006997;28;20049;-84
2021/03/16 00:38:19;;;;;;;18.83;2.92;;;6.40;99.90;;;;;;5009132;28;20448;-84
2021/03/16 00:40:45;;;;;;;15.93;2.47;;;6.40;99.90;;;;;;5000238;28;20038;-84
2021/03/16 00:43:11;;;;;;;17.45;2.67;;;6.40;99.90;;;;;;5007299;28;20104;-84
2021/03/16 00:45:37;;;;;;;11.73;1.77;;;6.40;99.90;;;;;;4995641;28;20142;-84
2021/03/16 00:48:04;;;;;;;21.42;3.05;;;6.40;99.90;;;;;;5002496;28;20069;-84
2021/03/16 00:50:31;;;;;;;13.68;2.45;;;6.40;99.90;;;;;;5009287;28;20767;-84
2021/03/16 00:52:57;;;;;;;23.33;3.42;;;6.40;99.90;;;;;;4995730;28;20045;-84
2021/03/16 00:55:34;;;;;;;22.58;2.80;;;6.40;99.90;;;;;;4998269;28;20103;-84
2021/03/16 00:58:00;;;;;;;21.73;2.67;;;6.30;99.90;;;;;;5001092;28;20100;-84
2021/03/16 01:00:27;;;;;;;19.45;2.58;;;6.30;99.90;;;;;;4996362;28;20034;-84
2021/03/16 01:02:54;;;;;;;22.77;2.90;;;6.20;99.90;;;;;;4989167;28;20113;-84
2021/03/16 01:05:20;;;;;;;18.48;2.30;;;6.20;99.90;;;;;;5009182;28;20081;-83
2021/03/16 01:07:46;;;;;;;19.73;3.42;;;6.20;99.90;;;;;;4997442;28;20092;-84
2021/03/16 01:10:15;;;;;;;19.25;3.35;;;6.20;99.90;;;;;;4990267;28;20517;-83
2021/03/16 01:12:43;;;;;;;22.98;4.00;;;6.20;99.90;;;;;;4997925;28;20401;-83
2021/03/16 01:15:10;;;;;;;15.85;1.88;;;6.20;99.90;;;;;;4987538;28;20049;-84
2021/03/16 01:17:37;;;;;;;23.98;2.70;;;6.20;99.90;;;;;;5014559;28;20452;-83
2021/03/16 01:20:16;;;;;;;18.80;2.33;;;6.20;99.90;;;;;;5010942;28;20135;-83
2021/03/16 01:22:42;;;;;;;25.63;2.58;;;6.20;99.90;;;;;;4990523;28;20049;-83
2021/03/16 01:25:10;;;;;;;15.48;2.60;;;6.20;99.90;;;;;;4997425;28;20072;-83
2021/03/16 01:27:36;;;;;;;18.50;2.63;;;6.20;99.90;;;;;;5011906;28;20073;-84
2021/03/16 01:30:04;;;;;;;19.27;2.63;;;6.20;99.90;;;;;;4996827;28;20054;-83
2021/03/16 01:32:30;;;;;;;19.83;2.85;;;6.20;99.90;;;;;;5000922;28;20069;-83
2021/03/16 01:34:57;;;;;;;20.60;2.15;;;6.20;99.90;;;;;;4993932;28;20137;-84
2021/03/16 01:37:23;;;;;;;18.17;2.85;;;6.20;99.90;;;;;;5012976;28;20045;-84
2021/03/16 01:39:49;;;;;;;11.52;1.80;;;6.10;99.90;;;;;;4997185;28;20076;-83
2021/03/16 01:42:16;;;;;;;24.27;3.97;;;6.10;99.90;;;;;;5013909;28;20229;-83
2021/03/16 01:44:45;;;;;;;17.15;1.75;;;6.10;99.90;;;;;;4991434;28;20117;-83
2021/03/16 01:47:15;;;;;;;28.35;5.40;;;6.10;99.90;;;;;;5014202;28;20056;-84
2021/03/16 01:49:42;;;;;;;18.42;3.65;;;6.10;99.90;;;;;;5014722;28;20053;-84
2021/03/16 01:52:09;;;;;;;17.35;2.25;;;6.00;99.90;;;;;;5002625;28;20057;-84
2021/03/16 01:54:39;;;;;;;16.48;2.20;;;6.00;99.90;;;;;;5002823;28;20051;-84
2021/03/16 01:57:09;;;;;;;22.13;3.35;;;5.90;99.90;;;;;;4995384;28;20485;-84
2021/03/16 01:59:35;;;;;;;13.57;2.08;;;5.90;99.90;;;;;;4990422;28;20064;-83
2021/03/16 02:02:05;;;;;;;22.38;3.08;;;5.80;99.90;;;;;;4998426;28;20065;-83
2021/03/16 02:04:31;;;;;;;23.75;3.17;;;5.90;99.90;;;;;;4994305;28;20056;-84
2021/03/16 02:07:23;;;;;;;25.73;4.18;;;5.80;99.90;;;;;;5010380;28;20108;-84
2021/03/16 02:10:07;;;;;;;18.92;2.83;;;5.90;99.90;;;;;;5012235;28;20061;-84
2021/03/16 02:12:47;;;;;;;13.65;2.90;;;5.90;99.90;;;;;;5003997;28;20129;-83
2021/03/16 02:15:14;;;;;;;19.00;3.10;;;5.90;99.90;;;;;;4990505;28;20109;-84
2021/03/16 02:17:43;;;;;;;12.73;2.35;;;5.90;99.90;;;;;;5011269;28;20105;-83
2021/03/16 02:20:33;;;;;;;19.98;2.47;;;5.90;99.90;;;;;;5010766;28;20144;-83
2021/03/16 02:23:02;;;;;;;19.67;2.75;;;6.00;99.90;;;;;;5003089;28;20057;-84
2021/03/16 02:25:31;;;;;;;21.17;2.25;;;6.00;99.90;;;;;;4987755;28;20157;-84
2021/03/16 02:28:26;;;;;;;10.27;2.10;;;6.00;99.90;;;;;;5009356;28;20056;-83
2021/03/16 02:30:53;;;;;;;16.35;2.15;;;5.90;99.90;;;;;;5001199;28;20130;-84
2021/03/16 02:33:25;;;;;;;14.00;2.17;;;5.90;99.90;;;;;;5008883;28;20033;-84
2021/03/16 02:35:53;;;;;;;21.50;3.13;;;5.80;99.90;;;;;;4992965;28;20144;-83
2021/03/16 02:38:27;;;;;;;23.13;2.65;;;5.80;99.90;;;;;;5001813;28;20058;-84
2021/03/16 02:40:55;;;;;;;16.20;2.40;;;5.80;99.90;;;;;;4995228;28;20480;-83
2021/03/16 02:43:22;;;;;;;17.80;2.97;;;5.80;99.90;;;;;;5004233;28;20065;-83
2021/03/16 02:45:50;;;;;;;23.08;3.53;;;5.70;99.90;;;;;;4998761;28;20054;-84
2021/03/16 02:48:19;;;;;;;15.20;1.80;;;5.70;99.90;;;;;;5013178;28;20917;-84
2021/03/16 02:50:47;;;;;;;14.85;2.38;;;5.60;99.90;;;;;;4997847;28;20141;-84
2021/03/16 02:53:15;;;;;;;13.75;1.80;;;5.60;99.90;;;;;;4999422;28;20650;-84
2021/03/16 02:55:43;;;;;;;19.10;1.98;;;5.50;99.90;;;;;;5002526;28;20485;-84
2021/03/16 02:58:10;;;;;;;17.00;2.72;;;5.50;99.90;;;;;;5011472;28;20074;-84
2021/03/16 03:00:38;;;;;;;23.50;3.55;;;5.50;99.90;;;;;;5001889;28;20465;-83
2021/03/16 03:03:06;;;;;;;19.35;2.10;;;5.50;99.90;;;;;;4998513;28;20026;-84
2021/03/16 03:05:34;;;;;;;19.40;2.35;;;5.40;99.90;;;;;;5010667;28;20030;-84
2021/03/16 03:08:03;;;;;;;14.65;2.78;;;5.40;99.90;;;;;;5012058;28;20092;-84
2021/03/16 03:10:29;;;;;;;14.38;2.08;;;5.40;99.90;;;;;;4999555;28;20046;-83
2021/03/16 03:12:55;;;;;;;12.02;1.75;;;5.40;99.90;;;;;;5010686;28;20476;-84
2021/03/16 03:15:21;;;;;;;22.88;2.50;;;5.40;99.90;;;;;;4996546;28;20140;-83
2021/03/16 03:17:48;;;;;;;14.10;1.50;;;5.40;99.90;;;;;;4990270;28;20053;-84
2021/03/16 03:20:15;;;;;;;12.82;2.40;;;5.40;99.90;;;;;;5001950;28;20046;-84
2021/03/16 03:22:48;;;;;;;17.40;1.55;;;5.40;99.90;;;;;;5011992;28;20096;-84
2021/03/16 03:25:30;;;;;;;13.57;1.85;;;5.40;99.90;;;;;;4998086;28;20046;-84
2021/03/16 03:28:04;;;;;;;18.05;2.80;;;5.40;99.90;;;;;;4991730;28;20046;-84
2021/03/16 03:30:32;;;;;;;16.52;2.50;;;5.30;99.90;;;;;;4992564;28;20065;-84
2021/03/16 03:33:03;;;;;;;17.17;1.73;;;5.30;99.90;;;;;;4999764;28;20068;-83
2021/03/16 03:35:33;;;;;;;17.67;1.67;;;5.30;99.90;;;;;;4999464;28;20668;-84
2021/03/16 03:38:01;;;;;;;24.23;2.45;;;5.30;99.90;;;;;;5000732;28;20042;-84
2021/03/16 03:40:30;;;;;;;18.15;2.35;;;5.40;99.90;;;;;;5003187;28;20026;-84
2021/03/16 03:43:02;;;;;;;20.98;2.13;;;5.40;99.90;;;;;;4993459;28;20046;-84
2021/03/16 03:45:30;;;;;;;13.52;1.77;;;5.40;99.90;;;;;;4980182;28;20457;-84
2021/03/16 03:48:00;;;;;;;22.75;2.90;;;5.40;99.90;;;;;;4987475;28;20054;-84
2021/03/16 03:50:26;;;;;;;15.57;2.03;;;5.40;99.90;;;;;;4996072;28;20140;-84
2021/03/16 03:52:54;;;;;;;29.83;2.33;;;5.50;99.90;;;;;;4992152;28;20497;-84
2021/03/16 03:55:21;;;;;;;18.75;1.58;;;5.50;99.90;;;;;;4992086;28;20060;-84
2021/03/16 03:57:55;;;;;;;20.23;2.40;;;5.50;99.90;;;;;;5007147;28;20698;-84
2021/03/16 04:00:22;;;;;;;26.77;4.55;;;5.60;99.90;;;;;;5000967;28;20073;-84
2021/03/16 04:02:50;;;;;;;20.27;2.30;;;5.60;99.90;;;;;;4993221;28;20056;-84
2021/03/16 04:05:18;;;;;;;14.52;1.80;;;5.60;99.90;;;;;;4984774;28;20057;-84
2021/03/16 04:07:45;;;;;;;17.38;2.95;;;5.60;99.90;;;;;;4994054;28;20108;-84
2021/03/16 04:10:13;;;;;;;14.52;2.90;;;5.60;99.90;;;;;;4993278;28;20100;-84
2021/03/16 04:12:39;;;;;;;14.82;1.75;;;5.70;99.90;;;;;;4998036;28;20045;-82
2021/03/16 04:15:11;;;;;;;18.85;1.65;;;5.70;99.90;;;;;;5008520;28;20054;-84
2021/03/16 04:17:39;;;;;;;14.48;1.95;;;5.70;99.90;;;;;;4992761;28;20078;-84
2021/03/16 04:20:07;;;;;;;22.50;1.95;;;5.80;99.90;;;;;;4995846;28;20497;-83
2021/03/16 04:22:35;;;;;;;14.13;2.17;;;5.80;99.90;;;;;;4998205;28;20068;-84
2021/03/16 04:25:02;;;;;;;15.48;1.70;;;5.80;99.90;;;;;;4993578;28;20397;-84
2021/03/16 04:27:28;;;;;;;25.35;2.25;;;5.90;99.90;;;;;;4998363;28;20057;-83
2021/03/16 04:29:55;;;;;;;15.05;2.38;;;5.90;99.90;;;;;;4992154;28;20112;-84
2021/03/16 04:32:21;;;;;;;20.25;1.73;;;6.00;99.90;;;;;;4994366;28;20482;-84
2021/03/16 04:34:47;;;;;;;21.85;2.10;;;6.00;99.90;;;;;;5002509;28;20046;-84
2021/03/16 04:37:14;;;;;;;19.90;1.90;;;5.90;99.90;;;;;;5008733;28;20073;-84
2021/03/16 04:39:41;;;;;;;14.18;1.98;;;6.00;99.90;;;;;;5001026;28;20542;-84
2021/03/16 04:42:07;;;;;;;12.45;1.80;;;6.00;99.90;;;;;;5000040;28;20046;-84
2021/03/16 04:44:34;;;;;;;16.25;1.75;;;6.00;99.90;;;;;;5002504;28;20073;-84
2021/03/16 04:47:00;;;;;;;29.83;2.22;;;6.00;99.90;;;;;;5000515;28;20073;-84
2021/03/16 04:49:26;;;;;;;14.88;2.58;;;6.00;99.90;;;;;;5013477;28;20049;-84
2021/03/16 04:51:53;;;;;;;21.20;2.47;;;6.00;99.90;;;;;;4994593;28;20060;-84
2021/03/16 04:54:19;;;;;;;13.93;3.17;;;6.00;99.90;;;;;;4995719;28;20129;-84
2021/03/16 04:56:45;;;;;;;13.82;2.90;;;6.00;99.90;;;;;;4998463;28;20050;-83
2021/03/16 04:59:12;;;;;;;16.77;1.55;;;6.00;99.90;;;;;;5009763;28;20481;-84
2021/03/16 05:01:38;;;;;;;17.35;2.30;;;6.00;99.90;;;;;;5009640;28;20056;-84
2021/03/16 05:04:05;;;;;;;16.95;2.25;;;6.00;99.90;;;;;;5008543;28;20045;-84
2021/03/16 05:06:31;;;;;;;15.13;2.20;;;6.00;99.90;;;;;;4992107;28;20042;-84
2021/03/16 05:08:57;;;;;;;20.92;1.55;;;6.00;99.90;;;;;;4992978;28;20053;-84
2021/03/16 05:11:24;;;;;;;20.13;1.88;;;6.00;99.90;;;;;;5009178;28;20371;-84
2021/03/16 05:13:51;;;;;;;19.88;2.65;;;6.00;99.90;;;;;;4997497;28;20045;-84
2021/03/16 05:16:18;;;;;;;29.25;2.67;;;6.00;99.90;;;;;;5010370;28;20137;-85
2021/03/16 05:18:45;;;;;;;14.05;2.00;;;6.00;99.90;;;;;;4998708;28;20073;-84
2021/03/16 05:21:11;;;;;;;22.05;2.22;;;6.00;99.90;;;;;;4991125;28;20160;-84
2021/03/16 05:23:37;;;;;;;23.33;2.17;;;6.10;99.90;;;;;;4990949;28;20073;-84
2021/03/16 05:26:03;;;;;;;18.92;2.47;;;6.00;99.90;;;;;;4998243;28;20110;-84
2021/03/16 05:28:30;;;;;;;18.40;1.83;;;6.00;99.90;;;;;;4990984;28;20553;-84
2021/03/16 05:30:56;;;;;;;22.52;3.72;;;6.10;99.90;;;;;;4995186;28;20085;-84
2021/03/16 05:33:22;;;;;;;19.33;3.22;;;6.10;99.90;;;;;;5006394;28;20042;-84
2021/03/16 05:35:49;;;;;;;20.30;2.80;;;6.10;99.90;;;;;;4992774;28;20497;-84
2021/03/16 05:38:15;;;;;;;17.75;1.92;;;6.10;99.90;;;;;;5008436;28;20468;-84
2021/03/16 05:40:42;;;;;;;16.30;2.22;;;6.10;99.90;;;;;;4994682;28;20572;-83
2021/03/16 05:43:10;;;;;;;21.83;2.42;;;6.10;99.90;;;;;;4992118;28;20046;-84
2021/03/16 05:45:38;;;;;;;22.00;2.75;;;6.10;99.90;;;;;;5006766;28;20074;-84
2021/03/16 05:48:08;;;;;;;37.10;4.30;;;6.10;99.90;;;;;;4999530;28;20124;-84
2021/03/16 05:50:34;;;;;;;17.77;2.75;;;6.10;99.90;;;;;;4996480;28;20054;-83
2021/03/16 05:53:03;;;;;;;26.15;3.72;;;6.10;99.90;;;;;;4976316;28;20056;-84
2021/03/16 05:55:29;;;;;;;27.33;2.47;;;6.10;99.90;;;;;;4998347;28;20054;-84
2021/03/16 05:57:56;;;;;;;21.88;2.72;;;6.10;99.90;;;;;;4997650;28;20481;-84
2021/03/16 06:00:22;;;;;;;19.30;2.28;;;6.10;99.90;;;;;;4987867;28;20073;-83
2021/03/16 06:02:49;;;;;;;20.27;2.17;;;6.20;99.90;;;;;;5003489;28;20568;-84
2021/03/16 06:05:17;;;;;;;17.55;4.35;;;6.20;99.90;;;;;;4986570;28;20045;-83
2021/03/16 06:07:50;;;;;;;27.42;1.88;;;6.20;99.90;;;;;;5010852;28;20053;-82
2021/03/16 06:10:21;;;;;;;21.88;1.90;;;6.20;99.90;;;;;;5004200;28;20074;-83
2021/03/16 06:12:48;;;;;;;22.48;3.03;;;6.20;99.90;;;;;;5013149;28;20044;-84
2021/03/16 06:15:19;;;;;;;27.88;3.47;;;6.20;99.90;;;;;;4999330;28;20808;-83
2021/03/16 06:17:52;;;;;;;24.20;3.83;;;6.30;99.90;;;;;;4996554;28;20056;-83
2021/03/16 06:20:30;;;;;;;25.10;2.65;;;6.30;99.90;;;;;;5011627;28;20100;-84
2021/03/16 06:23:12;;;;;;;20.80;3.08;;;6.30;99.90;;;;;;5013635;28;20494;-83
2021/03/16 06:25:44;;;;;;;21.02;2.13;;;6.40;99.90;;;;;;5013901;28;20129;-81
2021/03/16 06:28:12;;;;;;;18.60;2.70;;;6.50;99.90;;;;;;5003588;28;20061;-83
2021/03/16 06:30:40;;;;;;;15.15;2.53;;;6.50;99.90;;;;;;5007880;28;20053;-82
2021/03/16 06:33:24;;;;;;;18.88;2.85;;;6.50;99.90;;;;;;5000506;28;20163;-82
2021/03/16 06:36:07;;;;;;;;;;;6.60;99.90;;;;;;5003235;28;20137;-82
2021/03/16 06:38:36;;;;;;;14.32;2.70;;;6.60;99.90;;;;;;4990182;28;20012;-83
2021/03/16 06:41:15;;;;;;;14.52;1.90;;;6.70;99.90;;;;;;5010203;28;20077;-81
2021/03/16 06:43:51;;;;;;;16.42;1.85;;;6.70;99.90;;;;;;5002440;28;20052;-83
2021/03/16 06:46:38;;;;;;;15.55;1.85;;;6.80;99.90;;;;;;5002415;28;20065;-82
2021/03/16 06:49:18;;;;;;;14.85;1.83;;;6.90;99.90;;;;;;5000914;28;20080;-84
2021/03/16 06:51:46;;;;;;;18.33;2.88;;;7.00;99.90;;;;;;4991223;28;20076;-83
2021/03/16 06:54:17;;;;;;;18.95;2.63;;;7.00;99.90;;;;;;4998730;28;20592;-84
2021/03/16 06:56:58;;;;;;;15.75;2.47;;;7.00;99.90;;;;;;4990546;28;20750;-79
2021/03/16 06:59:31;;;;;;;19.73;2.55;;;7.00;99.90;;;;;;4995661;28;20041;-82
2021/03/16 07:02:09;;;;;;;18.85;2.55;;;7.00;99.90;;;;;;5012104;28;20058;-81
2021/03/16 07:04:43;;;;;;;19.80;1.63;;;6.90;99.90;;;;;;5010781;28;20145;-82
2021/03/16 07:07:10;;;;;;;14.68;2.30;;;6.90;99.90;;;;;;5011393;28;20054;-83
2021/03/16 07:09:37;;;;;;;24.02;3.17;;;6.90;99.90;;;;;;4999410;28;20114;-80
2021/03/16 07:12:04;;;;;;;14.50;2.13;;;6.90;99.90;;;;;;4993038;28;20033;-81
2021/03/16 07:14:31;;;;;;;16.13;1.73;;;7.00;99.90;;;;;;4993436;28;20057;-80
2021/03/16 07:17:02;;;;;;;21.75;3.35;;;7.00;99.90;;;;;;5012264;28;20073;-80
2021/03/16 07:19:31;;;;;;;24.67;2.53;;;7.00;99.90;;;;;;5003619;28;20081;-81
2021/03/16 07:22:00;;;;;;;35.17;2.70;;;7.10;99.90;;;;;;4996973;28;20050;-82
2021/03/16 07:24:32;;;;;;;16.42;2.38;;;7.10;99.90;;;;;;5000502;28;20118;-82
2021/03/16 07:27:00;;;;;;;14.77;1.83;;;7.20;99.90;;;;;;4999312;28;20513;-82
2021/03/16 07:29:27;;;;;;;14.70;1.95;;;7.20;99.90;;;;;;4997681;28;20152;-80
2021/03/16 07:32:02;;;;;;;20.38;2.75;;;7.20;99.90;;;;;;5006894;28;20557;-82
2021/03/16 07:34:29;;;;;;;21.38;2.40;;;7.30;99.90;;;;;;5008846;28;20042;-81
2021/03/16 07:36:56;;;;;;;17.20;2.42;;;7.40;99.90;;;;;;5009700;28;20116;-81
2021/03/16 07:39:24;;;;;;;17.33;2.28;;;7.50;99.90;;;;;;4992797;28;20105;-83
2021/03/16 07:41:51;;;;;;;14.15;2.35;;;7.60;99.90;;;;;;5000430;28;20072;-82
2021/03/16 07:44:19;;;;;;;21.42;2.85;;;7.60;99.90;;;;;;5012675;28;20046;-84
2021/03/16 07:47:03;;;;;;;22.38;2.88;;;7.70;99.90;;;;;;4991700;28;20052;-82
2021/03/16 07:49:35;;;;;;;14.80;1.98;;;7.80;99.90;;;;;;5009687;28;20041;-82
2021/03/16 07:52:02;;;;;;;18.75;2.65;;;7.80;99.90;;;;;;4992755;28;20049;-82
2021/03/16 07:54:38;;;;;;;21.67;2.30;;;7.90;99.90;;;;;;4997051;28;20112;-82
2021/03/16 07:57:04;;;;;;;13.70;2.28;;;8.00;99.90;;;;;;5004917;28;20046;-81
2021/03/16 07:59:38;;;;;;;19.23;2.80;;;8.10;99.90;;;;;;4993543;28;20050;-82
2021/03/16 08:02:04;;;;;;;15.43;2.35;;;8.20;99.90;;;;;;5008380;28;20144;-81
2021/03/16 08:04:39;;;;;;;19.45;3.08;;;8.30;99.90;;;;;;4996169;28;20046;-82
2021/03/16 08:07:12;;;;;;;18.67;2.30;;;8.30;99.90;;;;;;4999519;28;20041;-81
2021/03/16 08:09:55;;;;;;;20.67;2.80;;;8.20;99.90;;;;;;5005389;28;20050;-81
2021/03/16 08:12:29;;;;;;;11.70;2.30;;;8.10;99.90;;;;;;4986545;28;20046;-80
2021/03/16 08:15:09;;;;;;;8.93;0.93;;;8.00;99.90;;;;;;5006549;28;20177;-80
2021/03/16 08:17:36;;;;;;;14.50;1.50;;;8.00;99.90;;;;;;4997304;28;20070;-80
2021/03/16 08:20:04;;;;;;;7.78;1.27;;;8.00;99.90;;;;;;4991299;28;20092;-80
2021/03/16 08:22:32;;;;;;;11.82;2.17;;;8.00;99.90;;;;;;5000475;28;20049;-81
2021/03/16 08:25:03;;;;;;;7.93;1.90;;;8.10;99.90;;;;;;5008973;28;20105;-81
2021/03/16 08:27:30;;;;;;;11.77;1.40;;;8.10;99.90;;;;;;4985852;28;20049;-80
2021/03/16 08:29:57;;;;;;;7.03;1.38;;;8.10;99.90;;;;;;4997505;28;20444;-80
2021/03/16 08:32:23;;;;;;;12.75;1.35;;;8.30;99.90;;;;;;4999755;28;20057;-84
2021/03/16 08:34:54;;;;;;;8.48;1.00;;;8.30;99.90;;;;;;5015449;28;20200;-81
2021/03/16 08:37:29;;;;;;;13.57;1.80;;;8.40;99.90;;;;;;4991184;28;20573;-81
2021/03/16 08:40:01;;;;;;;10.32;1.40;;;8.50;99.90;;;;;;4996072;28;20061;-80
2021/03/16 08:42:29;;;;;;;8.80;0.95;;;8.60;99.90;;;;;;4991086;28;20057;-84
2021/03/16 08:44:56;;;;;;;13.07;1.30;;;8.60;99.90;;;;;;5001952;28;20053;-84
2021/03/16 08:47:25;;;;;;;20.13;1.60;;;8.70;99.90;;;;;;4985506;28;20117;-84
2021/03/16 08:49:54;;;;;;;9.82;1.23;;;8.70;99.90;;;;;;5006478;28;20100;-85
2021/03/16 08:52:28;;;;;;;13.77;1.60;;;8.80;99.90;;;;;;4972306;28;20049;-85
2021/03/16 08:54:58;;;;;;;15.05;1.27;;;8.80;99.90;;;;;;4998671;28;20046;-85
2021/03/16 08:57:33;;;;;;;10.02;1.40;;;8.80;99.90;;;;;;4990813;28;20058;-85
2021/03/16 09:00:00;;;;;;;12.85;1.67;;;8.90;99.90;;;;;;4975298;28;21013;-84
2021/03/16 09:02:34;;;;;;;11.15;1.58;;;9.00;99.90;;;;;;4992554;28;20073;-85
2021/03/16 09:05:05;;;;;;;13.95;1.67;;;9.00;99.90;;;;;;5005594;28;20046;-85
2021/03/16 09:07:33;;;;;;;13.02;2.03;;;9.20;99.90;;;;;;5007721;28;20061;-85
2021/03/16 09:10:18;;;;;;;11.82;2.13;;;9.40;99.90;;;;;;4983064;28;20041;-85
2021/03/16 09:12:50;;;;;;;19.75;2.78;;;9.50;99.90;;;;;;5011810;28;20056;-85
2021/03/16 09:15:22;;;;;;;14.00;1.75;;;9.50;99.90;;;;;;4994458;28;20481;-85
2021/03/16 09:17:51;;;;;;;20.15;2.15;;;9.60;99.90;;;;;;4993636;28;20052;-85
2021/03/16 09:20:20;;;;;;;14.15;2.20;;;9.60;99.90;;;;;;5009110;28;20132;-84
2021/03/16 09:22:59;;;;;;;17.42;1.90;;;9.60;99.90;;;;;;4963898;28;20049;-86
2021/03/16 09:25:31;;;;;;;21.13;2.00;;;9.60;99.90;;;;;;5000590;28;20569;-86
2021/03/16 09:28:01;;;;;;;15.57;1.80;;;9.70;99.90;;;;;;4988520;28;20111;-86
2021/03/16 09:30:28;;;;;;;14.45;1.73;;;9.80;99.90;;;;;;4991000;28;20083;-86
2021/03/16 09:33:00;;;;;;;10.10;1.52;;;10.10;99.90;;;;;;4987005;28;20276;-83
2021/03/16 09:35:26;;;;;;;10.95;2.08;;;10.30;99.90;;;;;;4981181;28;20106;-83
2021/03/16 09:37:54;;;;;;;8.50;1.83;;;10.50;99.90;;;;;;5001848;28;20077;-84
2021/03/16 09:40:42;;;;;;;13.60;1.77;;;10.50;99.90;;;;;;5006357;28;20049;-84
2021/03/16 09:43:24;;;;;;;17.90;1.95;;;10.60;99.90;;;;;;4976764;28;20058;-84
2021/03/16 09:45:53;;;;;;;15.45;2.20;;;10.60;99.90;;;;;;4992176;28;20110;-84
2021/03/16 09:48:21;;;;;;;17.45;1.48;;;10.60;99.90;;;;;;5001920;28;20425;-84
2021/03/16 09:50:48;;;;;;;13.25;1.60;;;10.50;99.90;;;;;;5001826;28;20049;-82
2021/03/16 09:53:15;;;;;;;14.10;2.15;;;10.50;99.90;;;;;;5010250;28;20057;-83
2021/03/16 09:55:59;;;;;;;15.52;2.28;;;10.50;99.90;;;;;;5005523;28;20074;-82
2021/03/16 09:58:28;;;;;;;13.13;1.98;;;10.60;99.90;;;;;;4997436;28;20046;-83
2021/03/16 10:00:56;;;;;;;7.53;1.75;;;10.70;99.90;;;;;;4971022;28;20149;-84
2021/03/16 10:03:23;;;;;;;12.18;1.80;;;10.70;99.90;;;;;;4992367;28;20046;-84
2021/03/16 10:05:50;;;;;;;9.75;1.48;;;10.70;99.90;;;;;;4981672;28;20585;-83
2021/03/16 10:08:24;;;;;;;12.13;2.45;;;10.70;99.90;;;;;;4993959;28;20038;-84
2021/03/16 10:10:52;;;;;;;17.13;2.25;;;10.60;99.90;;;;;;4998526;28;20109;-84
2021/03/16 10:13:31;;;;;;;16.35;2.25;;;10.70;99.90;;;;;;4995205;28;20572;-84
2021/03/16 10:16:09;;;;;;;16.00;1.90;;;10.80;99.90;;;;;;4990512;28;20050;-83
2021/03/16 10:18:41;;;;;;;14.38;1.80;;;10.90;99.90;;;;;;4983898;28;20048;-84
2021/03/16 10:21:08;;;;;;;12.63;1.17;;;10.90;99.90;;;;;;4987897;28;20049;-84
2021/03/16 10:23:38;;;;;;;17.75;2.00;;;11.00;99.90;;;;;;5004569;28;20073;-83
2021/03/16 10:26:10;;;;;;;16.23;3.33;;;11.00;99.90;;;;;;4973045;28;20049;-83
2021/03/16 10:28:38;;;;;;;11.45;1.85;;;11.00;99.90;;;;;;4959030;28;20136;-84
2021/03/16 10:31:18;;;;;;;8.05;1.67;;;10.90;99.90;;;;;;4984222;28;20050;-84
2021/03/16 10:33:48;;;;;;;11.60;1.30;;;10.90;99.90;;;;;;5002955;28;20058;-84
2021/03/16 10:36:15;;;;;;;10.15;1.45;;;10.90;99.90;;;;;;5004363;28;20046;-84
2021/03/16 10:38:42;;;;;;;12.98;1.30;;;11.00;99.90;;;;;;4963192;28;20054;-84
2021/03/16 10:41:17;;;;;;;17.38;1.63;;;11.10;99.90;;;;;;4987513;28;20786;-83
2021/03/16 10:43:52;;;;;;;10.80;2.00;;;11.10;99.90;;;;;;4971819;28;20444;-85
2021/03/16 10:46:22;;;;;;;13.88;1.45;;;11.20;99.90;;;;;;4921804;28;20049;-85
2021/03/16 10:48:49;;;;;;;10.23;2.00;;;11.40;99.90;;;;;;4909552;28;20133;-86
2021/03/16 10:51:15;;;;;;;13.32;2.65;;;11.50;99.90;;;;;;4968678;28;20042;-85
2021/03/16 10:53:42;;;;;;;14.85;1.67;;;11.50;99.90;;;;;;4991025;28;20145;-84
2021/03/16 10:56:08;;;;;;;7.80;1.40;;;11.60;99.90;;;;;;4998601;28;20050;-82
2021/03/16 10:58:35;;;;;;;8.18;1.60;;;11.60;99.90;;;;;;4957409;28;20062;-83
2021/03/16 11:01:02;;;;;;;13.27;2.20;;;11.60;99.90;;;;;;4996076;28;20054;-84
2021/03/16 11:03:31;;;;;;;11.60;2.08;;;11.80;99.90;;;;;;4985055;28;20100;-83
2021/03/16 11:06:06;;;;;;;14.82;3.45;;;11.90;99.90;;;;;;5001744;28;20124;-82
2021/03/16 11:08:33;;;;;;;;;;;12.10;99.90;;;;;;5003156;28;20049;-81
2021/03/16 11:10:59;;;;;;;17.80;2.90;;;12.30;99.90;;;;;;4998853;28;19975;-83
2021/03/16 11:13:25;;;;;;;7.82;1.55;;;12.30;99.90;;;;;;5003854;28;20050;-82
2021/03/16 11:15:51;;;;;;;7.65;1.45;;;12.30;99.90;;;;;;5010357;28;20069;-83
2021/03/16 11:18:18;;;;;;;13.35;2.60;;;12.20;99.90;;;;;;4998287;28;20084;-81
2021/03/16 11:20:46;;;;;;;12.45;1.95;;;12.30;99.90;;;;;;5010620;28;20043;-84
2021/03/16 11:23:13;;;;;;;11.15;1.65;;;12.30;99.90;;;;;;5013699;28;20084;-83
2021/03/16 11:25:40;;;;;;;13.52;1.92;;;12.20;99.90;;;;;;4992277;28;20908;-84
2021/03/16 11:28:06;;;;;;;13.25;2.25;;;12.10;99.90;;;;;;4999414;28;20054;-84
2021/03/16 11:30:38;;;;;;;17.95;2.33;;;12.00;99.90;;;;;;4981810;28;20045;-84
2021/03/16 11:33:05;;;;;;;10.52;1.50;;;12.00;99.90;;;;;;4960537;28;20057;-83
2021/03/16 11:35:32;;;;;;;12.82;2.22;;;12.00;99.90;;;;;;5001438;28;20058;-83
2021/03/16 11:37:58;;;;;;;15.65;2.05;;;12.00;99.90;;;;;;5011998;28;20054;-83
2021/03/16 11:40:24;;;;;;;15.73;2.13;;;12.00;99.90;;;;;;4994239;28;20454;-84
2021/03/16 11:42:50;;;;;;;14.82;2.78;;;11.90;99.90;;;;;;5001867;28;20073;-83
2021/03/16 11:45:17;;;;;;;16.05;1.40;;;12.00;99.90;;;;;;5004529;28;20045;-83
2021/03/16 11:47:43;;;;;;;15.98;2.00;;;11.90;99.90;;;;;;5017176;28;20050;-85
2021/03/16 11:50:11;;;;;;;14.57;2.33;;;11.80;99.90;;;;;;4987276;28;20054;-84
2021/03/16 11:52:47;;;;;;;15.95;2.42;;;11.90;99.90;;;;;;5003672;28;20050;-85
2021/03/16 11:55:17;;;;;;;18.77;2.05;;;11.90;99.90;;;;;;4983554;28;20052;-86
2021/03/16 11:57:45;;;;;;;16.20;1.90;;;11.80;99.90;;;;;;4983501;28;20049;-85
2021/03/16 12:00:12;;;;;;;10.90;1.48;;;11.90;99.90;;;;;;4945616;28;20074;-84
2021/03/16 12:02:39;;;;;;;10.73;2.15;;;11.90;99.90;;;;;;4965625;28;20086;-84
2021/03/16 12:05:27;;;;;;;13.30;1.90;;;11.90;99.90;;;;;;4967299;28;20054;-83
2021/03/16 12:07:56;;;;;;;9.73;1.23;;;12.10;99.90;;;;;;4989616;28;20057;-84
2021/03/16 12:10:22;;;;;;;8.57;1.13;;;12.30;99.90;;;;;;4973180;28;20351;-83
2021/03/16 12:12:56;;;;;;;14.70;2.53;;;12.60;99.90;;;;;;4983036;28;20078;-83
2021/03/16 12:15:23;;;;;;;16.95;1.42;;;12.70;99.90;;;;;;4976512;28;20050;-84
2021/03/16 12:17:50;;;;;;;13.80;1.75;;;12.80;99.90;;;;;;4959519;28;20137;-83
2021/03/16 12:20:17;;;;;;;11.35;1.60;;;12.80;99.90;;;;;;4968396;28;20138;-83
2021/03/16 12:22:44;;;;;;;8.98;1.60;;;12.60;99.90;;;;;;4997460;28;20056;-86
2021/03/16 12:25:11;;;;;;;13.70;2.30;;;12.40;99.90;;;;;;4998672;28;20072;-84
2021/03/16 12:27:37;;;;;;;9.65;1.25;;;12.10;99.90;;;;;;5014519;28;20084;-85
2021/03/16 12:30:05;;;;;;;9.23;2.10;;;11.90;99.90;;;;;;5002247;28;20070;-82
2021/03/16 12:32:31;;;;;;;10.48;1.25;;;11.70;99.90;;;;;;4980183;28;20133;-82
2021/03/16 12:34:58;;;;;;;4.95;0.70;;;11.60;99.90;;;;;;4985268;28;20066;-83
2021/03/16 12:37:27;;;;;;;6.40;0.90;;;11.60;99.90;;;;;;4984736;28;20053;-83
2021/03/16 12:39:53;;;;;;;7.45;1.40;;;11.60;99.90;;;;;;5007649;28;20121;-83
2021/03/16 12:42:19;;;;;;;8.50;0.60;;;11.60;99.90;;;;;;4993771;28;20466;-85
2021/03/16 12:44:45;;;;;;;5.00;1.98;;;11.70;99.90;;;;;;5002985;28;20073;-84
2021/03/16 12:47:12;;;;;;;6.10;0.68;;;11.80;99.90;;;;;;4994631;28;20157;-84
2021/03/16 12:49:38;;;;;;;4.40;0.50;;;11.70;99.90;;;;;;5004437;28;20084;-83
2021/03/16 12:52:05;;;;;;;8.07;0.90;;;11.60;99.90;;;;;;5010936;28;20070;-82
2021/03/16 12:54:31;;;;;;;3.30;0.52;;;11.60;99.90;;;;;;4999104;28;20054;-83
2021/03/16 12:56:57;;;;;;;4.45;1.15;;;11.60;99.90;;;;;;5001783;28;20046;-82